createdAt,value
2023-01-27T00:01:22.652Z,5.50
2023-01-27T00:03:53.977Z,5.50
2023-01-27T00:06:22.530Z,5.50
2023-01-27T00:08:51.079Z,5.50
2023-01-27T00:11:36.949Z,5.50
2023-01-27T00:14:05.550Z,5.50
2023-01-27T00:16:34.039Z,5.50
2023-01-27T00:19:03.900Z,5.50
2023-01-27T00:21:49.719Z,5.50
2023-01-27T00:24:37.417Z,5.50
2023-01-27T00:27:06.271Z,5.50
2023-01-27T00:29:34.705Z,5.40
2023-01-27T00:32:20.789Z,5.40
2023-01-27T00:34:50.708Z,5.40
2023-01-27T00:37:20.769Z,5.40
2023-01-27T00:39:49.203Z,5.40
2023-01-27T00:42:17.711Z,5.40
2023-01-27T00:45:06.541Z,5.40
2023-01-27T00:47:35.173Z,5.40
2023-01-27T00:50:05.591Z,5.40
2023-01-27T00:52:34.049Z,5.40
2023-01-27T00:55:02.539Z,5.40
2023-01-27T00:57:31.038Z,5.30
2023-01-27T00:59:59.893Z,5.30
2023-01-27T01:02:28.582Z,5.30
2023-01-27T01:04:57.243Z,5.30
2023-01-27T01:07:28.310Z,5.20
2023-01-27T01:09:56.809Z,5.20
2023-01-27T01:12:25.362Z,5.20
2023-01-27T01:14:54.001Z,5.20
2023-01-27T01:17:22.508Z,5.20
2023-01-27T01:19:51.270Z,5.10
2023-01-27T01:22:19.729Z,5.10
2023-01-27T01:24:49.678Z,5.10
2023-01-27T01:27:18.131Z,5.10
2023-01-27T01:29:46.688Z,5.10
2023-01-27T01:32:15.110Z,5.10
2023-01-27T01:34:44.529Z,5.10
2023-01-27T01:37:13.020Z,5.10
2023-01-27T01:39:41.482Z,5.10
2023-01-27T01:42:11.340Z,5.10
2023-01-27T01:44:45.910Z,5.10
2023-01-27T01:47:17.856Z,5.10
2023-01-27T01:49:47.960Z,5.10
2023-01-27T01:52:20.880Z,5.10
2023-01-27T01:54:53.095Z,5.10
2023-01-27T01:57:28.178Z,5.10
2023-01-27T02:00:02.228Z,5.10
2023-01-27T02:02:32.752Z,5.10
2023-01-27T02:05:05.928Z,5.20
2023-01-27T02:07:40.992Z,5.20
2023-01-27T02:10:10.067Z,5.20
2023-01-27T02:12:40.038Z,5.20
2023-01-27T02:15:11.133Z,5.20
2023-01-27T02:17:40.181Z,5.10
2023-01-27T02:20:17.329Z,5.10
2023-01-27T02:22:51.334Z,5.10
2023-01-27T02:25:30.769Z,5.10
2023-01-27T02:28:00.781Z,5.10
2023-01-27T02:30:29.333Z,5.10
2023-01-27T02:32:57.990Z,5.10
2023-01-27T02:35:32.919Z,5.10
2023-01-27T02:38:01.830Z,5.00
2023-01-27T02:40:34.821Z,5.00
2023-01-27T02:43:06.571Z,5.00
2023-01-27T02:45:34.962Z,5.00
2023-01-27T02:48:03.582Z,5.00
2023-01-27T02:50:32.054Z,5.00
2023-01-27T02:53:00.568Z,5.00
2023-01-27T02:55:29.068Z,5.00
2023-01-27T02:57:57.579Z,5.00
2023-01-27T03:00:27.510Z,5.00
2023-01-27T03:03:07.764Z,5.00
2023-01-27T03:05:36.268Z,5.00
2023-01-27T03:08:04.829Z,4.90
2023-01-27T03:10:33.301Z,4.90
2023-01-27T03:13:01.709Z,4.90
2023-01-27T03:15:50.567Z,4.90
2023-01-27T03:18:19.179Z,4.90
2023-01-27T03:20:49.248Z,4.90
2023-01-27T03:23:21.453Z,4.90
2023-01-27T03:25:50.298Z,4.90
2023-01-27T03:28:18.784Z,4.90
2023-01-27T03:30:48.723Z,4.90
2023-01-27T03:33:17.220Z,4.80
2023-01-27T03:35:49.551Z,4.80
2023-01-27T03:38:35.687Z,4.80
2023-01-27T03:41:22.209Z,4.80
2023-01-27T03:44:17.207Z,4.80
2023-01-27T03:46:47.158Z,4.80
2023-01-27T03:49:15.579Z,4.80
2023-01-27T03:51:43.963Z,4.80
2023-01-27T03:54:12.429Z,4.80
2023-01-27T03:56:40.947Z,4.70
2023-01-27T03:59:09.489Z,4.70
2023-01-27T04:01:38.042Z,4.80
2023-01-27T04:04:25.467Z,4.70
2023-01-27T04:06:54.561Z,4.70
2023-01-27T04:09:24.757Z,4.70
2023-01-27T04:11:55.604Z,4.70
2023-01-27T04:14:25.739Z,4.70
2023-01-27T04:16:55.687Z,4.70
2023-01-27T04:19:25.961Z,4.70
2023-01-27T04:21:54.890Z,4.70
2023-01-27T04:24:26.769Z,4.70
2023-01-27T04:26:57.374Z,4.70
2023-01-27T04:29:27.739Z,4.70
2023-01-27T04:31:57.994Z,4.70
2023-01-27T04:34:29.059Z,4.70
2023-01-27T04:36:58.048Z,4.70
2023-01-27T04:39:27.594Z,4.70
2023-01-27T04:41:57.320Z,4.70
2023-01-27T04:44:25.981Z,4.70
2023-01-27T04:46:55.381Z,4.70
2023-01-27T04:49:23.857Z,4.70
2023-01-27T04:51:53.772Z,4.60
2023-01-27T04:54:22.459Z,4.60
2023-01-27T04:56:59.111Z,4.60
2023-01-27T04:59:27.616Z,4.60
2023-01-27T05:01:56.408Z,4.60
2023-01-27T05:04:26.550Z,4.60
2023-01-27T05:06:57.559Z,4.60
2023-01-27T05:09:26.272Z,4.60
2023-01-27T05:11:54.687Z,4.60
2023-01-27T05:14:23.784Z,4.60
2023-01-27T05:16:52.384Z,4.60
2023-01-27T05:19:20.932Z,4.70
2023-01-27T05:21:49.358Z,4.70
2023-01-27T05:24:19.733Z,4.70
2023-01-27T05:26:48.340Z,4.70
2023-01-27T05:29:32.601Z,4.70
2023-01-27T05:32:01.125Z,4.70
2023-01-27T05:34:29.754Z,4.70
2023-01-27T05:36:58.281Z,4.70
2023-01-27T05:39:28.239Z,4.60
2023-01-27T05:42:04.770Z,4.60
2023-01-27T05:44:37.572Z,4.60
2023-01-27T05:47:09.080Z,4.60
2023-01-27T05:49:39.073Z,4.60
2023-01-27T05:52:07.591Z,4.60
2023-01-27T05:54:37.381Z,4.60
2023-01-27T05:57:05.872Z,4.60
2023-01-27T05:59:34.350Z,4.50
2023-01-27T06:02:02.898Z,4.60
2023-01-27T06:04:31.379Z,4.60
2023-01-27T06:07:00.888Z,4.60
2023-01-27T06:09:29.290Z,4.60
2023-01-27T06:12:05.336Z,4.60
2023-01-27T06:14:33.738Z,4.60
2023-01-27T06:17:02.167Z,4.70
2023-01-27T06:19:30.619Z,4.60
2023-01-27T06:21:59.029Z,4.60
2023-01-27T06:24:27.513Z,4.60
2023-01-27T06:26:57.542Z,4.70
2023-01-27T06:29:27.459Z,4.60
2023-01-27T06:31:55.976Z,4.60
2023-01-27T06:34:30.658Z,4.60
2023-01-27T06:36:59.259Z,4.60
2023-01-27T06:39:27.691Z,4.60
2023-01-27T06:41:56.248Z,4.60
2023-01-27T06:44:24.719Z,4.60
2023-01-27T06:46:54.861Z,4.60
2023-01-27T06:49:23.378Z,4.70
2023-01-27T06:51:51.801Z,4.60
2023-01-27T06:54:20.500Z,4.60
2023-01-27T06:56:54.018Z,4.60
2023-01-27T06:59:22.442Z,4.60
2023-01-27T07:01:55.440Z,4.60
2023-01-27T07:04:24.111Z,4.60
2023-01-27T07:06:52.559Z,4.70
2023-01-27T07:09:21.102Z,4.70
2023-01-27T07:11:49.558Z,4.70
2023-01-27T07:14:18.180Z,4.70
2023-01-27T07:16:47.228Z,4.70
2023-01-27T07:19:17.814Z,4.70
2023-01-27T07:21:46.238Z,4.60
2023-01-27T07:24:14.791Z,4.60
2023-01-27T07:26:45.312Z,4.60
2023-01-27T07:29:13.847Z,4.60
2023-01-27T07:31:42.813Z,4.60
2023-01-27T07:34:11.407Z,4.60
2023-01-27T07:36:41.307Z,4.60
2023-01-27T07:39:09.840Z,4.60
2023-01-27T07:41:38.439Z,4.50
2023-01-27T07:44:07.038Z,4.50
2023-01-27T07:46:35.648Z,4.50
2023-01-27T07:49:04.118Z,4.50
2023-01-27T07:51:32.689Z,4.50
2023-01-27T07:54:02.697Z,4.50
2023-01-27T07:56:54.773Z,4.50
2023-01-27T07:59:24.452Z,4.50
2023-01-27T08:02:12.243Z,4.50
2023-01-27T08:04:52.568Z,4.40
2023-01-27T08:07:22.055Z,4.50
2023-01-27T08:09:54.572Z,4.40
2023-01-27T08:12:23.075Z,4.40
2023-01-27T08:14:51.588Z,4.40
2023-01-27T08:17:20.098Z,4.30
2023-01-27T08:19:50.694Z,4.30
2023-01-27T08:22:22.338Z,4.30
2023-01-27T08:24:52.288Z,4.30
2023-01-27T08:27:20.807Z,4.30
2023-01-27T08:29:49.300Z,4.30
2023-01-27T08:32:17.780Z,4.40
2023-01-27T08:34:46.202Z,4.40
2023-01-27T08:37:14.753Z,4.40
2023-01-27T08:39:43.194Z,4.40
2023-01-27T08:42:13.158Z,4.50
2023-01-27T08:44:42.819Z,4.50
2023-01-27T08:47:11.356Z,4.50
2023-01-27T08:49:39.879Z,4.60
2023-01-27T08:52:08.320Z,4.70
2023-01-27T08:54:36.738Z,4.70
2023-01-27T08:57:05.253Z,4.70
2023-01-27T08:59:35.174Z,4.70
2023-01-27T09:02:03.571Z,4.70
2023-01-27T09:04:32.047Z,4.60
2023-01-27T09:07:01.707Z,4.60
2023-01-27T09:09:30.071Z,4.70
2023-01-27T09:11:58.487Z,4.70
2023-01-27T09:14:26.912Z,4.70
2023-01-27T09:16:56.791Z,4.60
2023-01-27T09:19:25.406Z,4.60
2023-01-27T09:21:53.888Z,4.60
2023-01-27T09:24:22.445Z,4.60
2023-01-27T09:26:51.021Z,4.60
2023-01-27T09:29:39.667Z,4.60
2023-01-27T09:32:12.737Z,4.70
2023-01-27T09:34:41.290Z,4.70
2023-01-27T09:37:12.541Z,4.80
2023-01-27T09:39:46.768Z,4.90
2023-01-27T09:42:40.649Z,5.00
2023-01-27T09:45:50.561Z,5.00
2023-01-27T09:48:35.003Z,5.10
2023-01-27T09:51:12.907Z,5.10
2023-01-27T09:54:06.332Z,5.10
2023-01-27T09:56:48.051Z,5.20
2023-01-27T09:59:40.472Z,5.20
2023-01-27T10:02:23.349Z,5.20
2023-01-27T10:05:08.562Z,5.20
2023-01-27T10:07:57.915Z,5.10
2023-01-27T10:10:39.636Z,5.20
2023-01-27T10:13:23.064Z,5.20
2023-01-27T10:16:14.555Z,5.20
2023-01-27T10:18:58.221Z,5.30
2023-01-27T10:21:39.639Z,5.20
2023-01-27T10:24:15.412Z,5.30
2023-01-27T10:26:50.891Z,5.30
2023-01-27T10:29:26.130Z,5.30
2023-01-27T10:32:01.353Z,5.30
2023-01-27T10:34:36.264Z,5.30
2023-01-27T10:37:26.058Z,5.30
2023-01-27T10:40:03.112Z,5.30
2023-01-27T10:42:38.829Z,5.40
2023-01-27T10:45:25.263Z,5.50
2023-01-27T10:48:05.626Z,5.50
2023-01-27T10:50:40.922Z,5.60
2023-01-27T10:53:38.846Z,5.70
2023-01-27T10:56:26.317Z,5.80
2023-01-27T10:59:02.997Z,5.90
2023-01-27T11:01:37.135Z,5.80
2023-01-27T11:04:13.720Z,5.90
2023-01-27T11:06:45.030Z,5.90
2023-01-27T11:09:27.248Z,6.00
2023-01-27T11:12:02.939Z,5.90
2023-01-27T11:14:36.746Z,5.90
2023-01-27T11:17:32.338Z,5.90
2023-01-27T11:20:13.382Z,5.90
2023-01-27T11:22:58.698Z,5.90
2023-01-27T11:25:35.819Z,6.00
2023-01-27T11:28:17.670Z,6.10
2023-01-27T11:30:53.294Z,6.30
2023-01-27T11:33:31.342Z,6.30
2023-01-27T11:36:02.925Z,6.30
2023-01-27T11:38:32.178Z,6.40
2023-01-27T11:41:02.283Z,6.40
2023-01-27T11:43:31.268Z,6.40
2023-01-27T11:46:06.051Z,6.40
2023-01-27T11:48:41.411Z,6.40
2023-01-27T11:51:21.773Z,6.30
2023-01-27T11:53:57.672Z,6.30
2023-01-27T11:56:28.861Z,6.30
2023-01-27T11:59:04.692Z,6.20
2023-01-27T12:01:44.934Z,6.10
2023-01-27T12:04:20.063Z,6.00
2023-01-27T12:06:51.980Z,5.90
2023-01-27T12:09:35.066Z,5.90
2023-01-27T12:12:20.675Z,5.90
2023-01-27T12:14:51.044Z,5.90
2023-01-27T12:17:35.338Z,5.90
2023-01-27T12:20:08.026Z,5.90
2023-01-27T12:22:40.223Z,5.90
2023-01-27T12:25:17.019Z,5.90
2023-01-27T12:27:54.018Z,5.80
2023-01-27T12:30:25.092Z,5.80
2023-01-27T12:32:54.716Z,5.90
2023-01-27T12:35:27.386Z,6.00
2023-01-27T12:38:03.182Z,6.10
2023-01-27T12:40:35.037Z,6.30
2023-01-27T12:43:13.597Z,6.40
2023-01-27T12:45:43.494Z,6.50
2023-01-27T12:48:20.647Z,6.60
2023-01-27T12:51:07.093Z,6.80
2023-01-27T12:53:35.698Z,6.80
2023-01-27T12:56:12.391Z,6.70
2023-01-27T12:58:44.942Z,6.70
2023-01-27T13:01:31.523Z,6.70
2023-01-27T13:04:02.539Z,6.70
2023-01-27T13:06:42.722Z,6.70
2023-01-27T13:09:27.524Z,6.70
2023-01-27T13:11:58.309Z,6.70
2023-01-27T13:14:31.749Z,6.60
2023-01-27T13:17:00.442Z,6.70
2023-01-27T13:19:38.830Z,6.80
2023-01-27T13:22:10.248Z,6.80
2023-01-27T13:24:42.465Z,6.80
2023-01-27T13:27:16.718Z,6.70
2023-01-27T13:29:56.559Z,6.70
2023-01-27T13:32:29.787Z,6.70
2023-01-27T13:35:06.914Z,6.60
2023-01-27T13:37:39.506Z,6.50
2023-01-27T13:40:18.039Z,6.50
2023-01-27T13:42:52.600Z,6.40
2023-01-27T13:45:26.035Z,6.40
2023-01-27T13:47:58.538Z,6.40
2023-01-27T13:50:32.553Z,6.30
2023-01-27T13:53:02.727Z,6.20
2023-01-27T13:55:48.708Z,6.00
2023-01-27T13:58:27.838Z,5.90
2023-01-27T14:01:03.821Z,5.80
2023-01-27T14:03:58.701Z,5.70
2023-01-27T14:06:38.798Z,5.70
2023-01-27T14:09:22.383Z,5.70
2023-01-27T14:11:57.348Z,5.70
2023-01-27T14:14:49.066Z,5.70
2023-01-27T14:17:36.764Z,5.70
2023-01-27T14:20:31.201Z,5.70
2023-01-27T14:23:17.581Z,5.70
2023-01-27T14:25:57.854Z,5.60
2023-01-27T14:28:37.838Z,5.50
2023-01-27T14:31:14.047Z,5.40
2023-01-27T14:34:03.744Z,5.30
2023-01-27T14:36:39.399Z,5.40
2023-01-27T14:39:22.883Z,5.40
2023-01-27T14:41:57.646Z,5.40
2023-01-27T14:44:44.412Z,5.20
2023-01-27T14:47:44.059Z,5.10
2023-01-27T14:50:28.540Z,5.10
2023-01-27T14:53:25.395Z,5.10
2023-01-27T15:01:56.983Z,5.10
2023-01-27T15:04:38.696Z,5.10
2023-01-27T15:07:20.599Z,5.00
2023-01-27T15:10:23.170Z,5.00
2023-01-27T15:13:14.518Z,5.00
2023-01-27T15:16:21.859Z,5.00
2023-01-27T15:19:11.492Z,4.90
2023-01-27T15:22:12.028Z,4.80
2023-01-27T15:25:05.721Z,4.80
2023-01-27T15:27:54.577Z,4.70
2023-01-27T15:30:38.958Z,4.50
2023-01-27T15:33:48.538Z,4.40
2023-01-27T15:36:33.336Z,4.20
2023-01-27T15:39:26.018Z,4.10
2023-01-27T15:42:19.215Z,4.00
2023-01-27T15:45:04.750Z,3.90
2023-01-27T15:47:45.063Z,3.80
2023-01-27T15:50:32.457Z,3.80
2023-01-27T15:53:14.108Z,3.80
2023-01-27T15:56:00.370Z,3.70
2023-01-27T15:58:42.437Z,3.70
2023-01-27T16:01:25.149Z,3.60
2023-01-27T16:04:09.656Z,3.70
2023-01-27T16:07:02.569Z,3.70
2023-01-27T16:09:54.848Z,3.60
2023-01-27T16:12:48.147Z,3.60
2023-01-27T16:16:14.108Z,3.50
2023-01-27T16:18:46.808Z,3.50
2023-01-27T16:24:34.182Z,3.40
2023-01-27T16:27:14.399Z,3.40
2023-01-27T16:29:51.869Z,3.30
2023-01-27T16:32:23.143Z,3.30
2023-01-27T16:34:58.280Z,3.20
2023-01-27T16:37:40.155Z,3.10
2023-01-27T16:40:16.922Z,2.90
2023-01-27T16:43:05.169Z,2.80
2023-01-27T16:45:48.738Z,2.80
2023-01-27T16:48:24.859Z,2.60
2023-01-27T16:51:10.140Z,2.50
2023-01-27T16:53:51.339Z,2.30
2023-01-27T16:56:31.018Z,2.20
2023-01-27T16:59:06.123Z,2.20
2023-01-27T17:01:42.181Z,2.20
2023-01-27T17:04:20.510Z,2.10
2023-01-27T17:06:58.382Z,2.10
2023-01-27T17:09:29.631Z,2.00
2023-01-27T17:12:06.932Z,2.00
2023-01-27T17:14:47.350Z,2.00
2023-01-27T17:17:26.061Z,2.00
2023-01-27T17:20:05.227Z,2.10
2023-01-27T17:22:40.811Z,2.10
2023-01-27T17:25:18.070Z,2.10
2023-01-27T17:27:52.951Z,2.20
2023-01-27T17:30:26.086Z,2.30
2023-01-27T17:33:03.700Z,2.20
2023-01-27T17:35:42.125Z,2.20
2023-01-27T17:38:20.270Z,2.30
2023-01-27T17:40:57.894Z,2.30
2023-01-27T17:43:34.011Z,2.40
2023-01-27T17:46:22.976Z,2.50
2023-01-27T17:48:58.033Z,2.50
2023-01-27T17:51:35.436Z,2.50
2023-01-27T17:54:23.743Z,2.40
2023-01-27T17:57:10.911Z,2.40
2023-01-27T17:59:47.331Z,2.60
2023-01-27T18:02:26.132Z,2.60
2023-01-27T18:05:09.359Z,2.60
2023-01-27T18:07:43.761Z,2.60
2023-01-27T18:10:32.281Z,2.60
2023-01-27T18:13:14.146Z,2.60
2023-01-27T18:15:49.134Z,2.60
2023-01-27T18:18:24.527Z,2.70
2023-01-27T18:21:09.140Z,2.70
2023-01-27T18:23:56.121Z,2.70
2023-01-27T18:26:29.098Z,2.70
2023-01-27T18:29:16.688Z,2.70
2023-01-27T18:31:54.525Z,2.70
2023-01-27T18:34:29.802Z,2.70
2023-01-27T18:37:08.851Z,2.60
2023-01-27T18:39:44.989Z,2.60
2023-01-27T18:42:18.385Z,2.60
2023-01-27T18:44:58.787Z,2.60
2023-01-27T18:47:36.514Z,2.50
2023-01-27T18:50:24.159Z,2.50
2023-01-27T18:53:00.734Z,2.40
2023-01-27T18:55:34.805Z,2.20
2023-01-27T18:58:07.253Z,2.30
2023-01-27T19:00:49.405Z,2.20
2023-01-27T19:03:32.783Z,2.20
2023-01-27T19:06:21.861Z,2.20
2023-01-27T19:08:58.926Z,2.20
2023-01-27T19:11:32.839Z,2.30
2023-01-27T19:14:09.464Z,2.20
2023-01-27T19:16:42.318Z,2.20
2023-01-27T19:19:12.783Z,2.20
2023-01-27T19:21:45.259Z,2.20
2023-01-27T19:24:14.792Z,2.20
2023-01-27T19:26:49.066Z,2.20
2023-01-27T19:29:25.610Z,2.10
2023-01-27T19:31:58.246Z,2.10
2023-01-27T19:34:33.671Z,2.10
2023-01-27T19:37:05.321Z,2.00
2023-01-27T19:39:37.120Z,2.00
2023-01-27T19:42:10.690Z,2.00
2023-01-27T19:44:47.139Z,1.90
2023-01-27T19:47:20.046Z,1.80
2023-01-27T19:49:54.099Z,1.80
2023-01-27T19:52:25.379Z,1.70
2023-01-27T19:54:57.910Z,1.60
2023-01-27T19:57:36.448Z,1.60
2023-01-27T20:00:24.149Z,1.60
2023-01-27T20:03:13.379Z,1.60
2023-01-27T20:05:45.918Z,1.50
2023-01-27T20:08:35.110Z,1.40
2023-01-27T20:11:05.939Z,1.30
2023-01-27T20:13:38.406Z,1.30
2023-01-27T20:16:11.984Z,1.40
2023-01-27T20:18:44.884Z,1.40
2023-01-27T20:21:21.720Z,1.30
2023-01-27T20:24:09.049Z,1.20
2023-01-27T20:26:40.049Z,1.30
2023-01-27T20:29:10.923Z,1.30
2023-01-27T20:31:42.181Z,1.30
2023-01-27T20:34:13.404Z,1.20
2023-01-27T20:36:42.647Z,1.20
2023-01-27T20:39:18.819Z,1.30
2023-01-27T20:41:51.216Z,1.30
2023-01-27T20:44:21.740Z,1.20
2023-01-27T20:46:53.974Z,1.20
2023-01-27T20:49:33.772Z,1.20
2023-01-27T20:52:05.079Z,1.10
2023-01-27T20:54:33.958Z,1.10
2023-01-27T20:57:04.227Z,1.20
2023-01-27T20:59:33.616Z,1.10
2023-01-27T21:02:07.317Z,1.10
2023-01-27T21:04:38.319Z,1.20
2023-01-27T21:07:07.772Z,1.30
2023-01-27T21:09:49.282Z,1.30
2023-01-27T21:12:18.230Z,1.30
2023-01-27T21:14:48.061Z,1.20
2023-01-27T21:17:18.949Z,1.10
2023-01-27T21:19:53.154Z,1.10
2023-01-27T21:22:30.748Z,1.10
2023-01-27T21:25:03.190Z,1.20
2023-01-27T21:27:35.173Z,1.20
2023-01-27T21:30:13.808Z,1.20
2023-01-27T21:32:48.408Z,1.20
2023-01-27T21:35:23.169Z,1.20
2023-01-27T21:37:52.349Z,1.20
2023-01-27T21:40:21.844Z,1.20
2023-01-27T21:43:07.579Z,1.20
2023-01-27T21:45:38.562Z,1.20
2023-01-27T21:48:08.849Z,1.20
2023-01-27T21:50:53.204Z,1.30
2023-01-27T21:53:23.329Z,1.30
2023-01-27T21:55:53.961Z,1.30
2023-01-27T21:58:24.739Z,1.30
2023-01-27T22:00:53.229Z,1.30
2023-01-27T22:03:24.096Z,1.30
2023-01-27T22:05:52.829Z,1.20
2023-01-27T22:08:21.288Z,1.20
2023-01-27T22:11:05.542Z,1.20
2023-01-27T22:13:34.545Z,1.30
2023-01-27T22:16:03.689Z,1.30
2023-01-27T22:18:33.709Z,1.30
2023-01-27T22:21:02.906Z,1.30
2023-01-27T22:23:32.099Z,1.20
2023-01-27T22:26:00.626Z,1.10
2023-01-27T22:28:30.253Z,1.10
2023-01-27T22:31:02.768Z,1.00
2023-01-27T22:33:36.414Z,1.10
2023-01-27T22:36:07.509Z,1.10
2023-01-27T22:38:39.308Z,1.00
2023-01-27T22:41:07.978Z,1.10
2023-01-27T22:43:36.430Z,1.10
2023-01-27T22:46:05.400Z,1.10
2023-01-27T22:48:35.319Z,1.00
2023-01-27T22:51:05.188Z,1.00
2023-01-27T22:53:37.715Z,1.00
2023-01-27T22:56:06.775Z,1.00
2023-01-27T22:58:35.819Z,1.00
2023-01-27T23:01:07.032Z,0.90
2023-01-27T23:03:36.930Z,0.70
2023-01-27T23:06:06.909Z,0.70
2023-01-27T23:08:35.579Z,0.70
2023-01-27T23:11:05.401Z,0.60
2023-01-27T23:13:34.600Z,0.60
2023-01-27T23:16:54.080Z,0.50
2023-01-27T23:19:30.238Z,0.40
2023-01-27T23:21:58.831Z,0.50
2023-01-27T23:24:27.609Z,0.50
2023-01-27T23:26:56.181Z,0.50
2023-01-27T23:29:26.445Z,0.60
2023-01-27T23:31:55.781Z,0.60
2023-01-27T23:34:24.640Z,0.60
2023-01-27T23:36:54.538Z,0.60
2023-01-27T23:39:23.420Z,0.60
2023-01-27T23:41:51.871Z,0.60
2023-01-27T23:44:20.263Z,0.60
2023-01-27T23:46:48.716Z,0.60
2023-01-27T23:49:17.183Z,0.60
2023-01-27T23:51:45.680Z,0.70
2023-01-27T23:54:15.570Z,0.70
2023-01-27T23:56:53.089Z,0.70
2023-01-27T23:59:21.549Z,0.70
